Time;durP1;ratioP1;P1;durP2;ratioP2;P2;SDS_P1;SDS_P2;PMS_P1;PMS_P2;Temp;Humidity;BMP_temperature;BMP_pressure;BME280_temperature;BME280_humidity;BME280_pressure;Samples;Min_cycle;Max_cycle;Signal;HPM_P1;HPM_P2
2024/04/12 00:00:58;;;;;;;2.90;2.00;;;9.60;99.90;;;;;;5436254;26;20246;-62
2024/04/12 00:03:31;;;;;;;7.13;2.20;;;9.60;99.90;;;;;;5431915;26;20239;-61
2024/04/12 00:05:57;;;;;;;5.30;2.30;;;9.60;99.90;;;;;;5433320;26;20235;-61
2024/04/12 00:08:28;;;;;;;6.00;2.23;;;9.50;99.90;;;;;;5438176;26;20234;-62
2024/04/12 00:10:56;;;;;;;5.53;1.90;;;9.50;99.90;;;;;;5437035;26;20272;-62
2024/04/12 00:13:26;;;;;;;4.93;2.43;;;9.50;99.90;;;;;;5432120;26;20235;-59
2024/04/12 00:15:55;;;;;;;3.30;2.07;;;9.40;99.90;;;;;;5432221;26;20231;-59
2024/04/12 00:18:26;;;;;;;4.03;1.80;;;9.30;99.90;;;;;;5438138;26;20234;-59
2024/04/12 00:20:58;;;;;;;4.70;1.80;;;9.20;99.90;;;;;;5437311;26;20234;-60
2024/04/12 00:23:26;;;;;;;2.90;1.60;;;9.20;99.90;;;;;;5431822;26;20239;-59
2024/04/12 00:25:55;;;;;;;3.63;2.20;;;9.20;99.90;;;;;;5431850;26;20578;-59
2024/04/12 00:28:25;;;;;;;3.50;2.60;;;9.20;99.90;;;;;;5437889;26;20305;-60
2024/04/12 00:30:51;;;;;;;5.00;3.20;;;9.10;99.90;;;;;;5437601;26;20229;-60
2024/04/12 00:33:19;;;;;;;9.63;3.77;;;9.10;99.90;;;;;;5437847;26;20238;-60
2024/04/12 00:35:49;;;;;;;5.00;2.90;;;9.00;99.90;;;;;;5437890;26;20230;-60
2024/04/12 00:38:23;;;;;;;4.77;2.93;;;9.00;99.90;;;;;;5432076;26;20307;-58
2024/04/12 00:40:52;;;;;;;8.60;3.43;;;8.90;99.90;;;;;;5431268;26;20286;-58
2024/04/12 00:43:27;;;;;;;5.50;3.57;;;8.90;99.90;;;;;;5437975;26;20265;-58
2024/04/12 00:45:54;;;;;;;5.57;2.93;;;8.80;99.90;;;;;;5437450;26;20234;-60
2024/04/12 00:48:25;;;;;;;6.37;2.70;;;8.60;99.90;;;;;;5431616;26;20615;-60
2024/04/12 00:50:52;;;;;;;7.30;2.53;;;8.60;99.90;;;;;;5431215;26;20262;-60
2024/04/12 00:53:28;;;;;;;3.33;2.27;;;8.60;99.90;;;;;;5437941;26;20311;-59
2024/04/12 00:56:00;;;;;;;5.73;3.17;;;8.60;99.90;;;;;;5436963;26;20334;-60
2024/04/12 00:58:32;;;;;;;4.60;2.47;;;8.60;99.90;;;;;;5431280;26;20755;-60
2024/04/12 01:01:10;;;;;;;3.70;2.40;;;8.60;99.90;;;;;;5432323;26;20673;-59
2024/04/12 01:03:45;;;;;;;3.27;2.03;;;8.50;99.90;;;;;;5437408;26;20310;-59
2024/04/12 01:06:15;;;;;;;3.67;1.93;;;8.50;99.90;;;;;;5432733;26;20230;-59
2024/04/12 01:08:46;;;;;;;6.87;2.70;;;8.50;99.90;;;;;;5431176;26;20270;-59
2024/04/12 01:11:13;;;;;;;6.53;2.20;;;8.50;99.90;;;;;;5436164;26;20274;-60
2024/04/12 01:13:42;;;;;;;3.47;2.20;;;8.50;99.90;;;;;;5437265;26;20798;-59
2024/04/12 01:16:08;;;;;;;4.67;1.90;;;8.40;99.90;;;;;;5433917;26;20230;-60
2024/04/12 01:18:37;;;;;;;9.67;2.37;;;8.30;99.90;;;;;;5431285;26;20246;-61
2024/04/12 01:21:10;;;;;;;2.87;1.90;;;8.30;99.90;;;;;;5432818;26;20274;-59
2024/04/12 01:23:40;;;;;;;4.53;2.10;;;8.30;99.90;;;;;;5437197;26;20277;-61
2024/04/12 01:26:09;;;;;;;4.57;2.00;;;8.30;99.90;;;;;;5434126;26;20333;-59
2024/04/12 01:28:38;;;;;;;3.77;1.90;;;8.30;99.90;;;;;;5431037;26;20262;-59
2024/04/12 01:31:05;;;;;;;3.30;2.13;;;8.40;99.90;;;;;;5433207;26;20227;-60
2024/04/12 01:33:36;;;;;;;3.30;1.87;;;8.50;99.90;;;;;;5436927;26;20333;-59
2024/04/12 01:36:05;;;;;;;4.53;2.00;;;8.50;99.90;;;;;;5434903;26;20568;-59
2024/04/12 01:38:36;;;;;;;3.93;2.00;;;8.60;99.90;;;;;;5430854;26;20583;-59
2024/04/12 01:41:05;;;;;;;2.40;1.70;;;8.70;99.90;;;;;;5432693;26;20235;-66
2024/04/12 01:43:36;;;;;;;5.20;2.33;;;8.70;99.90;;;;;;5436834;26;20269;-60
2024/04/12 01:46:04;;;;;;;4.17;2.00;;;8.80;99.90;;;;;;5434758;26;20656;-59
2024/04/12 01:48:33;;;;;;;4.37;2.07;;;8.80;99.90;;;;;;5430639;26;20290;-59
2024/04/12 01:51:02;;;;;;;4.27;2.30;;;8.80;99.90;;;;;;5431237;26;20231;-59
2024/04/12 01:53:36;;;;;;;3.57;1.97;;;8.80;99.90;;;;;;5436699;26;20265;-59
2024/04/12 01:56:03;;;;;;;3.10;2.20;;;8.80;99.90;;;;;;5434651;26;20367;-61
2024/04/12 01:58:34;;;;;;;4.50;2.00;;;8.90;99.90;;;;;;5430498;26;20609;-59
2024/04/12 02:01:02;;;;;;;4.17;2.10;;;8.90;99.90;;;;;;5431219;26;20235;-59
2024/04/12 02:03:32;;;;;;;7.13;2.10;;;8.90;99.90;;;;;;5436878;26;20230;-59
2024/04/12 02:06:03;;;;;;;3.47;2.00;;;8.90;99.90;;;;;;5435756;26;20230;-59
2024/04/12 02:08:32;;;;;;;6.50;2.33;;;8.90;99.90;;;;;;5429141;26;20727;-59
2024/04/12 02:10:58;;;;;;;5.27;2.60;;;8.80;99.90;;;;;;5430674;26;20664;-59
2024/04/12 02:13:35;;;;;;;8.80;2.93;;;8.80;99.90;;;;;;5436254;26;20276;-59
2024/04/12 02:16:04;;;;;;;8.40;4.03;;;8.80;99.90;;;;;;5434636;26;20310;-59
2024/04/12 02:18:35;;;;;;;9.07;4.40;;;8.70;99.90;;;;;;5430170;26;20633;-59
2024/04/12 02:21:05;;;;;;;9.30;4.30;;;8.60;99.90;;;;;;5431200;26;20651;-61
2024/04/12 02:23:37;;;;;;;9.17;4.20;;;8.40;99.90;;;;;;5436157;26;20234;-58
2024/04/12 02:26:03;;;;;;;6.40;3.70;;;8.30;99.90;;;;;;5434373;26;20229;-59
2024/04/12 02:28:34;;;;;;;6.70;3.73;;;8.30;99.90;;;;;;5429992;26;20276;-61
2024/04/12 02:31:01;;;;;;;6.00;3.67;;;8.20;99.90;;;;;;5430642;26;20265;-60
2024/04/12 02:33:34;;;;;;;6.20;3.33;;;8.20;99.90;;;;;;5435918;26;20269;-58
2024/04/12 02:36:02;;;;;;;6.50;3.00;;;8.10;99.90;;;;;;5434593;26;20707;-59
2024/04/12 02:38:31;;;;;;;3.87;2.60;;;8.10;99.90;;;;;;5429789;26;20227;-59
2024/04/12 02:40:58;;;;;;;6.93;3.00;;;8.10;99.90;;;;;;5429966;26;20239;-59
2024/04/12 02:43:29;;;;;;;3.67;2.70;;;8.10;99.90;;;;;;5435649;26;20559;-60
2024/04/12 02:45:57;;;;;;;6.57;2.50;;;8.10;99.90;;;;;;5435889;26;20238;-59
2024/04/12 02:48:28;;;;;;;4.30;2.20;;;8.10;99.90;;;;;;5429526;26;20235;-59
2024/04/12 02:51:03;;;;;;;5.20;1.87;;;8.10;99.90;;;;;;5429112;26;20277;-60
2024/04/12 02:53:32;;;;;;;5.43;2.40;;;8.10;99.90;;;;;;5429585;26;20265;-59
2024/04/12 02:56:00;;;;;;;3.47;2.20;;;8.10;99.90;;;;;;5429958;26;20269;-61
2024/04/12 02:58:29;;;;;;;6.10;2.13;;;8.10;99.90;;;;;;5435662;26;20237;-59
2024/04/12 03:00:59;;;;;;;5.13;2.27;;;8.10;99.90;;;;;;5435139;26;20233;-59
2024/04/12 03:03:27;;;;;;;4.57;2.47;;;8.00;99.90;;;;;;5429318;26;20234;-59
2024/04/12 03:06:00;;;;;;;3.53;2.20;;;8.00;99.90;;;;;;5429280;26;20231;-59
2024/04/12 03:08:32;;;;;;;8.93;2.40;;;8.10;99.90;;;;;;5429269;26;20231;-60
2024/04/12 03:11:12;;;;;;;5.50;2.53;;;8.00;99.90;;;;;;5429224;26;20231;-61
2024/04/12 03:13:41;;;;;;;5.13;2.50;;;8.00;99.90;;;;;;5435178;26;20285;-59
2024/04/12 03:16:13;;;;;;;3.80;2.53;;;8.00;99.90;;;;;;5432657;26;20315;-59
2024/04/12 03:18:45;;;;;;;3.67;2.47;;;8.00;99.90;;;;;;5429075;26;20232;-59
2024/04/12 03:21:15;;;;;;;4.47;2.63;;;7.90;99.90;;;;;;5435683;26;20230;-59
2024/04/12 03:23:45;;;;;;;4.97;2.50;;;7.80;99.90;;;;;;5438984;26;20272;-59
2024/04/12 03:26:11;;;;;;;2.90;2.20;;;7.80;99.90;;;;;;5435351;26;20230;-58
2024/04/12 03:28:39;;;;;;;4.70;2.20;;;7.80;99.90;;;;;;5432629;26;20231;-60
2024/04/12 03:31:07;;;;;;;5.80;2.97;;;7.70;99.90;;;;;;5434361;26;20357;-59
2024/04/12 03:33:42;;;;;;;5.20;2.80;;;7.70;99.90;;;;;;5438792;26;20355;-59
2024/04/12 03:36:26;;;;;;;5.17;2.90;;;7.70;99.90;;;;;;5435771;26;20629;-57
2024/04/12 03:39:24;;;;;;;4.50;2.20;;;7.70;99.90;;;;;;5432414;26;20728;-58
2024/04/12 03:41:43;;;;;;;4.37;2.60;;;7.70;99.90;;;;;;5438429;26;20554;-58
2024/04/12 03:44:13;;;;;;;6.60;2.50;;;7.60;99.90;;;;;;5435441;26;20269;-58
2024/04/12 03:46:40;;;;;;;5.13;2.20;;;7.60;99.90;;;;;;5432359;26;20261;-58
2024/04/12 03:49:11;;;;;;;3.20;2.07;;;7.60;99.90;;;;;;5433950;26;20278;-58
2024/04/12 03:51:44;;;;;;;3.27;2.30;;;7.60;99.90;;;;;;5438519;26;20764;-59
2024/04/12 03:54:17;;;;;;;3.97;2.40;;;7.60;99.90;;;;;;5435492;26;20249;-60
2024/04/12 03:56:44;;;;;;;7.67;2.93;;;7.60;99.90;;;;;;5432487;26;20247;-58
2024/04/12 03:59:12;;;;;;;5.03;2.40;;;7.60;99.90;;;;;;5434776;26;20644;-60
2024/04/12 04:01:44;;;;;;;3.40;1.90;;;7.60;99.90;;;;;;5438304;26;20261;-58
2024/04/12 04:04:17;;;;;;;3.10;2.23;;;7.60;99.90;;;;;;5435220;26;20299;-59
2024/04/12 04:06:50;;;;;;;5.13;2.20;;;7.70;99.90;;;;;;5432464;26;20234;-59
2024/04/12 04:09:19;;;;;;;4.60;2.07;;;7.60;99.90;;;;;;5436838;26;20319;-59
2024/04/12 04:11:48;;;;;;;5.00;2.43;;;7.60;99.90;;;;;;5438389;26;20234;-59
2024/04/12 04:14:19;;;;;;;4.73;2.87;;;7.60;99.90;;;;;;5434715;26;20265;-59
2024/04/12 04:16:49;;;;;;;4.63;2.37;;;7.60;99.90;;;;;;5432362;26;20235;-58
2024/04/12 04:19:17;;;;;;;2.80;2.20;;;7.60;99.90;;;;;;5435754;26;20785;-58
2024/04/12 04:21:48;;;;;;;3.83;2.00;;;7.60;99.90;;;;;;5438046;26;20241;-58
2024/04/12 04:24:14;;;;;;;3.47;2.13;;;7.60;99.90;;;;;;5434231;26;20268;-60
2024/04/12 04:26:43;;;;;;;3.43;2.27;;;7.60;99.90;;;;;;5431927;26;20243;-58
2024/04/12 04:29:09;;;;;;;3.93;2.20;;;7.70;99.90;;;;;;5433989;26;20760;-60
2024/04/12 04:31:49;;;;;;;3.67;2.10;;;7.60;99.90;;;;;;5437208;26;20268;-59
2024/04/12 04:34:17;;;;;;;2.33;2.07;;;7.70;99.90;;;;;;5433952;26;20250;-59
2024/04/12 04:36:50;;;;;;;5.97;2.43;;;7.60;99.90;;;;;;5431797;26;20277;-59
2024/04/12 04:39:15;;;;;;;5.53;3.03;;;7.60;99.90;;;;;;5435618;26;20235;-59
2024/04/12 04:41:46;;;;;;;5.67;2.57;;;7.60;99.90;;;;;;5437936;26;21034;-59
2024/04/12 04:44:14;;;;;;;5.30;2.47;;;7.60;99.90;;;;;;5434454;26;20269;-60
2024/04/12 04:46:44;;;;;;;4.50;2.13;;;7.60;99.90;;;;;;5431699;26;20266;-59
2024/04/12 04:49:11;;;;;;;3.53;2.30;;;7.60;99.90;;;;;;5433701;26;20291;-59
2024/04/12 04:51:41;;;;;;;7.40;2.63;;;7.70;99.90;;;;;;5437800;26;20600;-58
2024/04/12 04:54:11;;;;;;;5.60;2.83;;;7.60;99.90;;;;;;5435676;26;20272;-59
2024/04/12 04:56:41;;;;;;;5.90;3.17;;;7.60;99.90;;;;;;5431503;26;20720;-59
2024/04/12 04:59:08;;;;;;;5.20;2.80;;;7.60;99.90;;;;;;5432471;26;20270;-58
2024/04/12 05:01:36;;;;;;;4.13;3.07;;;7.60;99.90;;;;;;5437178;26;20279;-57
2024/04/12 05:04:03;;;;;;;6.43;3.03;;;7.70;99.90;;;;;;5436626;26;20234;-60
2024/04/12 05:06:31;;;;;;;6.20;2.60;;;7.70;99.90;;;;;;5431273;26;20238;-60
2024/04/12 05:09:00;;;;;;;5.97;3.30;;;7.80;99.90;;;;;;5430645;26;20744;-59
2024/04/12 05:11:31;;;;;;;19.87;4.37;;;7.90;99.90;;;;;;5437373;26;20617;-59
2024/04/12 05:14:05;;;;;;;12.87;4.23;;;7.90;99.90;;;;;;5436985;26;20234;-59
2024/04/12 05:16:34;;;;;;;10.03;3.23;;;8.00;99.90;;;;;;5430771;26;20231;-59
2024/04/12 05:19:08;;;;;;;8.77;3.30;;;8.10;99.90;;;;;;5430446;26;20231;-59
2024/04/12 05:21:38;;;;;;;5.70;3.20;;;8.30;99.90;;;;;;5437117;26;20242;-59
2024/04/12 05:24:09;;;;;;;4.93;2.97;;;8.40;99.90;;;;;;5435952;26;20708;-59
2024/04/12 05:26:41;;;;;;;3.77;2.80;;;8.60;99.90;;;;;;5431158;26;20230;-59
2024/04/12 05:29:09;;;;;;;5.13;3.00;;;8.60;99.90;;;;;;5431711;26;20326;-58
2024/04/12 05:31:37;;;;;;;4.50;3.20;;;8.70;99.90;;;;;;5437020;26;20242;-60
2024/04/12 05:34:04;;;;;;;7.13;2.70;;;8.80;99.90;;;;;;5436091;26;20238;-60
2024/04/12 05:36:36;;;;;;;5.60;2.70;;;9.00;99.90;;;;;;5430606;26;20235;-59
2024/04/12 05:39:08;;;;;;;9.50;3.10;;;9.20;99.90;;;;;;5430182;26;20231;-59
2024/04/12 05:41:44;;;;;;;7.37;2.93;;;9.40;99.90;;;;;;5436374;26;20264;-59
2024/04/12 05:44:10;;;;;;;4.53;2.73;;;9.60;99.90;;;;;;5432336;26;20571;-59
2024/04/12 05:46:41;;;;;;;7.70;2.80;;;10.10;99.90;;;;;;5430694;26;20274;-60
2024/04/12 05:49:09;;;;;;;11.30;3.10;;;10.70;99.90;;;;;;5431202;26;20235;-57
2024/04/12 05:51:39;;;;;;;9.00;4.40;;;11.70;99.90;;;;;;5436278;26;20272;-57
2024/04/12 05:54:10;;;;;;;10.77;3.13;;;12.70;99.90;;;;;;5435277;26;20843;-58
2024/04/12 05:56:42;;;;;;;7.67;2.63;;;14.00;99.90;;;;;;5430098;26;20313;-57
2024/04/12 05:59:13;;;;;;;6.80;2.60;;;15.70;99.90;;;;;;5431099;26;20583;-57
2024/04/12 06:01:43;;;;;;;11.63;3.13;;;17.20;99.90;;;;;;5436496;26;20237;-56
2024/04/12 06:04:11;;;;;;;5.65;3.70;;;18.40;98.70;;;;;;5434034;26;20254;-57
2024/04/12 06:06:42;;;;;;;5.40;2.28;;;18.90;95.00;;;;;;5430145;26;20295;-57
2024/04/12 06:09:19;;;;;;;5.95;2.30;;;18.70;94.70;;;;;;5431299;26;20230;-57
2024/04/12 06:11:50;;;;;;;5.43;2.30;;;18.20;94.50;;;;;;5436428;26;20238;-57
2024/04/12 06:14:17;;;;;;;5.50;2.50;;;17.50;95.00;;;;;;5466710;20;20330;-59
2024/04/12 06:16:46;;;;;;;5.63;2.40;;;16.80;95.80;;;;;;5472223;26;20245;-59
2024/04/12 06:19:12;;;;;;;6.90;2.83;;;16.70;96.50;;;;;;5469418;26;20228;-58
2024/04/12 06:21:45;;;;;;;5.43;2.55;;;17.20;96.40;;;;;;5466063;26;20229;-57
2024/04/12 06:24:12;;;;;;;8.20;2.40;;;17.80;95.10;;;;;;5467843;26;20305;-61
2024/04/12 06:26:41;;;;;;;4.18;2.22;;;18.60;94.60;;;;;;5472395;26;20324;-59
2024/04/12 06:29:13;;;;;;;5.22;2.25;;;19.50;93.60;;;;;;5470424;26;20229;-59
2024/04/12 06:31:45;;;;;;;4.78;2.00;;;20.60;91.90;;;;;;5466057;26;20768;-58
2024/04/12 06:34:16;;;;;;;5.63;1.85;;;21.60;89.90;;;;;;5467994;26;20337;-59
2024/04/12 06:36:46;;;;;;;3.40;1.90;;;22.20;87.00;;;;;;5472094;26;20233;-58
2024/04/12 06:39:13;;;;;;;4.22;2.20;;;22.80;84.30;;;;;;5469412;26;20272;-57
2024/04/12 06:41:45;;;;;;;2.22;1.73;;;23.40;82.10;;;;;;5465529;26;20233;-58
2024/04/12 06:44:19;;;;;;;4.18;2.10;;;24.00;80.00;;;;;;5467432;26;20857;-59
2024/04/12 06:46:51;;;;;;;3.97;2.03;;;24.60;78.10;;;;;;5471643;26;20702;-59
2024/04/12 06:49:19;;;;;;;5.15;2.25;;;25.10;76.50;;;;;;5467829;26;20229;-59
2024/04/12 06:52:09;;;;;;;3.92;2.42;;;25.90;73.90;;;;;;5465428;26;20241;-59
2024/04/12 06:54:35;;;;;;;5.05;2.30;;;26.60;71.60;;;;;;5460621;26;20267;-58
2024/04/12 06:57:06;;;;;;;5.10;2.20;;;27.80;68.00;;;;;;5475282;26;20276;-58
2024/04/12 06:59:35;;;;;;;5.18;2.47;;;28.50;65.00;;;;;;5454591;26;20234;-58
2024/04/12 07:02:06;;;;;;;4.63;2.25;;;29.30;61.20;;;;;;5468885;26;20230;-59
2024/04/12 07:04:32;;;;;;;3.50;2.28;;;29.70;59.30;;;;;;5455128;26;20238;-58
2024/04/12 07:07:04;;;;;;;4.65;2.35;;;29.40;59.00;;;;;;5468936;26;20342;-58
2024/04/12 07:09:30;;;;;;;7.03;2.15;;;28.50;60.30;;;;;;5453864;26;20230;-58
2024/04/12 07:12:05;;;;;;;3.90;1.90;;;27.40;61.70;;;;;;5468624;26;20294;-58
2024/04/12 07:14:36;;;;;;;3.35;2.10;;;26.10;63.80;;;;;;5454352;26;20662;-58
2024/04/12 07:17:19;;;;;;;5.20;2.20;;;24.80;67.50;;;;;;5468536;26;20234;-58
2024/04/12 07:19:49;;;;;;;5.05;2.08;;;24.30;69.00;;;;;;5457668;26;20755;-58
2024/04/12 07:22:19;;;;;;;4.90;2.35;;;25.00;68.60;;;;;;5471383;26;20724;-60
2024/04/12 07:24:50;;;;;;;4.97;2.10;;;26.10;66.80;;;;;;5474819;26;20267;-60
2024/04/12 07:27:22;;;;;;;6.55;2.40;;;26.90;65.40;;;;;;5467052;26;20228;-57
2024/04/12 07:29:50;;;;;;;4.68;2.40;;;27.50;63.80;;;;;;5467480;26;20408;-65
2024/04/12 07:32:22;;;;;;;3.55;2.20;;;28.20;62.30;;;;;;5471067;26;20234;-62
2024/04/12 07:34:48;;;;;;;3.05;2.30;;;29.00;60.70;;;;;;5474640;26;20287;-65
2024/04/12 07:37:26;;;;;;;2.28;2.00;;;29.60;58.30;;;;;;5471877;26;20723;-66
2024/04/12 07:42:45;;;;;;;3.25;2.20;;;30.00;57.10;;;;;;5437872;26;20237;-59
2024/04/12 07:45:20;;;;;;;6.20;2.08;;;30.10;56.50;;;;;;5469565;26;20290;-59
2024/04/12 07:47:56;;;;;;;6.68;2.20;;;30.00;57.70;;;;;;5474579;26;20236;-61
2024/04/12 07:50:28;;;;;;;4.65;2.15;;;30.30;57.00;;;;;;5468565;26;20344;-61
2024/04/12 07:53:02;;;;;;;4.55;2.40;;;30.90;56.20;;;;;;5437535;26;20246;-63
2024/04/12 07:55:28;;;;;;;5.93;2.20;;;31.40;55.20;;;;;;5451680;26;20233;-63
2024/04/12 07:58:00;;;;;;;6.05;2.30;;;31.90;54.70;;;;;;5452507;26;20646;-63
2024/04/12 08:00:35;;;;;;;7.40;2.70;;;32.10;53.80;;;;;;5452166;26;20241;-64
2024/04/12 08:03:06;;;;;;;5.05;2.13;;;32.40;53.20;;;;;;5452926;26;20719;-64
2024/04/12 08:05:42;;;;;;;47.80;35.25;;;32.80;52.10;;;;;;5437930;26;20285;-63
2024/04/12 08:08:14;;;;;;;4.55;2.60;;;33.20;51.60;;;;;;5448824;26;20264;-63
2024/04/12 08:10:41;;;;;;;5.70;2.50;;;33.20;51.10;;;;;;5437079;26;20233;-63
2024/04/12 08:13:10;;;;;;;4.22;2.63;;;33.00;51.20;;;;;;5451866;26;20233;-63
2024/04/12 08:15:41;;;;;;;6.70;2.58;;;32.30;51.30;;;;;;5448579;26;20683;-61
2024/04/12 08:18:09;;;;;;;3.35;2.50;;;30.50;53.60;;;;;;5452713;26;20586;-62
2024/04/12 08:20:39;;;;;;;6.65;2.78;;;28.80;56.10;;;;;;5450493;26;20291;-61
2024/04/12 08:23:07;;;;;;;4.85;2.42;;;27.30;58.60;;;;;;5437363;26;20607;-63
2024/04/12 08:25:36;;;;;;;4.57;2.60;;;25.90;61.00;;;;;;5451872;26;20305;-64
2024/04/12 08:28:06;;;;;;;6.38;2.67;;;24.50;63.90;;;;;;5452133;26;20730;-64
2024/04/12 08:30:32;;;;;;;5.10;2.80;;;23.60;66.10;;;;;;5436924;26;20663;-63
2024/04/12 08:33:03;;;;;;;7.60;3.47;;;22.90;67.10;;;;;;5437123;26;20272;-63
2024/04/12 08:35:29;;;;;;;6.55;3.28;;;22.30;68.90;;;;;;5437161;26;20269;-60
2024/04/12 08:37:57;;;;;;;6.32;3.38;;;21.90;70.50;;;;;;5440497;26;20287;-60
2024/04/12 08:40:25;;;;;;;4.88;3.10;;;21.50;70.90;;;;;;5449496;26;20238;-63
2024/04/12 08:42:56;;;;;;;5.88;2.92;;;21.10;71.90;;;;;;5451533;26;20234;-64
2024/04/12 08:45:30;;;;;;;5.55;3.08;;;20.90;73.40;;;;;;5451830;26;20268;-64
2024/04/12 08:48:02;;;;;;;11.95;4.05;;;20.60;73.90;;;;;;5439918;26;20285;-64
2024/04/12 08:50:31;;;;;;;5.10;2.70;;;20.40;75.00;;;;;;5445555;26;20238;-63
2024/04/12 08:53:04;;;;;;;8.93;3.40;;;20.30;78.00;;;;;;5430938;26;20234;-64
2024/04/12 08:55:30;;;;;;;5.88;3.08;;;20.10;78.40;;;;;;5436512;26;20754;-63
2024/04/12 08:58:00;;;;;;;6.72;3.42;;;20.00;81.60;;;;;;5451673;26;20233;-62
2024/04/12 09:00:31;;;;;;;8.27;3.30;;;19.70;80.50;;;;;;5455521;26;20234;-61
2024/04/12 09:03:02;;;;;;;7.55;3.25;;;19.50;82.30;;;;;;5473532;26;20297;-58
2024/04/12 09:05:33;;;;;;;7.28;3.42;;;19.10;83.80;;;;;;5468058;26;20238;-59
2024/04/12 09:08:03;;;;;;;6.13;3.58;;;18.90;85.40;;;;;;5467321;26;20234;-59
2024/04/12 09:10:34;;;;;;;8.35;4.00;;;19.00;86.60;;;;;;5471897;26;20263;-59
2024/04/12 09:13:02;;;;;;;7.40;4.20;;;19.10;85.50;;;;;;5473112;26;20332;-59
2024/04/12 09:15:32;;;;;;;7.50;3.58;;;19.10;85.60;;;;;;5468407;26;20234;-59
2024/04/12 09:18:13;;;;;;;5.95;4.10;;;19.00;85.90;;;;;;5466908;26;20294;-58
2024/04/12 09:20:44;;;;;;;6.28;3.70;;;19.10;85.50;;;;;;5453430;26;20657;-57
2024/04/12 09:23:18;;;;;;;8.40;4.10;;;19.10;85.10;;;;;;5467680;26;20245;-60
2024/04/12 09:25:46;;;;;;;9.60;4.15;;;19.20;84.90;;;;;;5473575;26;20285;-59
2024/04/12 09:28:16;;;;;;;6.50;3.78;;;19.10;84.80;;;;;;5462969;26;20237;-57
2024/04/12 09:33:31;;;;;;;8.30;4.30;;;19.30;84.90;;;;;;5470510;26;20305;-60
2024/04/12 09:36:13;;;;;;;6.70;4.50;;;19.40;85.50;;;;;;5466689;26;20275;-60
2024/04/12 09:38:39;;;;;;;8.20;4.40;;;19.50;84.90;;;;;;5445983;26;20256;-58
2024/04/12 09:41:28;;;;;;;9.00;5.63;;;19.50;84.60;;;;;;5472232;26;20233;-57
2024/04/12 09:43:59;;;;;;;8.88;4.32;;;19.40;85.00;;;;;;5456850;26;20285;-58
2024/04/12 09:46:46;;;;;;;7.78;4.80;;;19.60;84.80;;;;;;5470715;26;20237;-58
2024/04/12 10:39:33;;;;;;;10.95;5.57;;;21.70;79.20;;;;;;5474584;26;20268;-57
2024/04/12 10:42:05;;;;;;;10.60;6.25;;;21.90;80.20;;;;;;5475025;26;20324;-58
2024/04/12 10:44:34;;;;;;;8.30;5.82;;;21.80;80.30;;;;;;5469967;26;20258;-68
2024/04/12 10:46:59;;;;;;;9.20;6.13;;;21.60;79.60;;;;;;5469189;26;20234;-64
2024/04/12 10:49:30;;;;;;;10.52;5.53;;;21.50;80.10;;;;;;5472271;26;20234;-64
2024/04/12 10:51:56;;;;;;;11.15;5.97;;;21.40;80.90;;;;;;5450387;26;20308;-61
2024/04/12 10:54:25;;;;;;;10.95;6.18;;;21.60;80.00;;;;;;5453119;26;20331;-69
2024/04/12 10:56:53;;;;;;;9.43;5.30;;;21.90;80.00;;;;;;5453516;26;20734;-65
2024/04/12 10:59:30;;;;;;;8.20;5.55;;;22.30;77.30;;;;;;5452768;26;20229;-67
2024/04/12 11:01:56;;;;;;;8.30;5.40;;;22.80;74.50;;;;;;5451373;26;20561;-62
2024/04/12 11:04:28;;;;;;;8.27;5.32;;;23.00;74.30;;;;;;5436593;26;20278;-67
2024/04/12 11:06:54;;;;;;;9.98;5.60;;;23.00;73.40;;;;;;5453274;26;20230;-64
2024/04/12 11:09:30;;;;;;;9.18;5.97;;;23.20;72.70;;;;;;5437659;26;20235;-64
2024/04/12 11:12:00;;;;;;;10.80;6.35;;;23.40;73.60;;;;;;5452225;26;20229;-61
2024/04/12 11:14:33;;;;;;;10.07;5.45;;;23.40;73.70;;;;;;5452837;26;20241;-65
2024/04/12 11:33:32;;;;;;;8.45;4.60;;;23.10;72.40;;;;;;5440281;26;20333;-65
2024/04/12 11:36:05;;;;;;;7.30;4.28;;;23.00;72.80;;;;;;5452905;26;20234;-65
2024/04/12 11:38:37;;;;;;;9.52;4.68;;;23.20;72.70;;;;;;5452558;26;20296;-65
2024/04/12 11:41:04;;;;;;;8.38;4.68;;;23.40;72.50;;;;;;5452270;26;20280;-65
2024/04/12 11:43:33;;;;;;;7.90;4.70;;;23.40;71.40;;;;;;5451939;26;20237;-60
2024/04/12 11:46:01;;;;;;;7.47;4.85;;;23.30;71.80;;;;;;5452624;26;20234;-64
2024/04/12 11:48:31;;;;;;;10.10;4.90;;;23.40;72.50;;;;;;5452389;26;20233;-65
2024/04/12 11:50:57;;;;;;;6.57;4.20;;;23.40;72.20;;;;;;5440988;26;20231;-61
2024/04/12 11:53:26;;;;;;;7.18;5.03;;;23.50;72.10;;;;;;5433945;26;20653;-58
2024/04/12 11:55:51;;;;;;;9.07;4.68;;;23.30;72.60;;;;;;5452571;26;20229;-58
2024/04/12 11:58:22;;;;;;;7.70;4.88;;;23.20;72.40;;;;;;5451264;26;20775;-62
2024/04/12 12:00:48;;;;;;;8.80;4.65;;;23.00;71.90;;;;;;5431218;26;20227;-63
2024/04/12 12:03:19;;;;;;;11.85;4.95;;;22.90;73.50;;;;;;5446672;26;20273;-62
2024/04/12 12:05:46;;;;;;;8.43;4.75;;;22.60;73.70;;;;;;5452467;26;20261;-57
2024/04/12 12:08:15;;;;;;;6.00;4.47;;;22.70;74.10;;;;;;5451866;26;20289;-58
2024/04/12 12:10:45;;;;;;;8.57;5.45;;;22.90;73.80;;;;;;5445270;26;20281;-62
2024/04/12 12:13:11;;;;;;;7.55;5.32;;;23.10;73.30;;;;;;5445720;26;20268;-58
2024/04/12 12:15:42;;;;;;;7.22;5.07;;;23.10;73.50;;;;;;5470497;20;20270;-64
2024/04/12 12:18:07;;;;;;;7.20;5.32;;;23.30;73.80;;;;;;5442387;26;20230;-64
2024/04/12 12:20:38;;;;;;;8.60;5.13;;;23.40;73.40;;;;;;5441880;26;20238;-64
2024/04/12 12:23:04;;;;;;;7.32;5.28;;;23.20;73.80;;;;;;5442573;26;20230;-62
2024/04/12 12:25:33;;;;;;;7.15;4.88;;;23.40;73.10;;;;;;5442491;26;20276;-66
2024/04/12 12:27:59;;;;;;;7.43;4.80;;;23.50;73.00;;;;;;5442581;26;20619;-64
2024/04/12 12:30:28;;;;;;;9.13;5.68;;;23.60;74.00;;;;;;5441942;26;20234;-63
2024/04/12 12:32:54;;;;;;;8.30;5.10;;;23.70;74.20;;;;;;5442521;26;20723;-62
2024/04/12 12:35:22;;;;;;;7.47;5.43;;;23.80;73.30;;;;;;5441925;26;20342;-61
2024/04/12 12:37:51;;;;;;;9.07;5.57;;;23.80;72.90;;;;;;5442086;26;20784;-63
2024/04/12 12:40:21;;;;;;;7.32;5.60;;;23.70;72.70;;;;;;5439815;26;20234;-63
2024/04/12 12:42:47;;;;;;;7.82;5.18;;;23.60;73.40;;;;;;5441594;26;20230;-62
2024/04/12 12:45:16;;;;;;;10.98;6.05;;;23.60;73.60;;;;;;5441848;26;20299;-63
2024/04/12 12:47:42;;;;;;;10.13;5.63;;;23.60;74.00;;;;;;5427980;26;20242;-66
2024/04/12 12:50:19;;;;;;;8.10;5.10;;;23.40;73.30;;;;;;5440980;26;20237;-67
2024/04/12 12:52:48;;;;;;;7.70;5.40;;;23.30;74.20;;;;;;5441154;26;20270;-64
2024/04/12 12:55:21;;;;;;;10.02;5.07;;;23.30;73.50;;;;;;5441989;26;20349;-63
2024/04/12 12:57:49;;;;;;;10.95;6.13;;;23.60;73.80;;;;;;5458512;26;20231;-65
2024/04/12 13:00:19;;;;;;;8.95;5.97;;;23.70;73.20;;;;;;5456332;26;20233;-65
2024/04/12 13:02:50;;;;;;;9.38;6.50;;;23.60;72.50;;;;;;5464740;26;20237;-65
2024/04/12 13:05:17;;;;;;;9.35;6.28;;;23.50;72.40;;;;;;5468781;26;20321;-65
2024/04/12 13:07:48;;;;;;;11.10;5.97;;;23.20;72.70;;;;;;5469058;26;20342;-65
2024/04/12 13:10:19;;;;;;;8.45;5.80;;;23.00;73.70;;;;;;5468540;26;20240;-64
2024/04/12 13:12:51;;;;;;;9.27;6.03;;;23.10;74.50;;;;;;5469088;26;20275;-65
2024/04/12 13:15:19;;;;;;;11.52;7.20;;;23.30;73.60;;;;;;5468158;26;20233;-65
2024/04/12 13:17:49;;;;;;;8.73;5.22;;;23.60;73.10;;;;;;5461293;26;20278;-66
2024/04/12 13:20:19;;;;;;;8.80;5.30;;;23.80;72.60;;;;;;5460839;26;20230;-63
2024/04/12 13:22:48;;;;;;;9.93;5.65;;;23.80;72.30;;;;;;5451769;26;20232;-65
2024/04/12 13:25:17;;;;;;;8.82;5.60;;;24.00;72.30;;;;;;5468965;26;20237;-64
2024/04/12 13:27:47;;;;;;;8.63;5.35;;;24.10;71.10;;;;;;5436015;26;20288;-65
2024/04/12 13:30:14;;;;;;;13.68;7.10;;;24.20;70.50;;;;;;5467856;26;20233;-65
2024/04/12 13:32:43;;;;;;;7.70;5.97;;;24.30;69.10;;;;;;5433936;26;20228;-64
2024/04/12 13:35:09;;;;;;;10.25;5.80;;;24.30;69.90;;;;;;5468313;26;20823;-66
2024/04/12 13:37:37;;;;;;;8.43;5.55;;;24.30;69.90;;;;;;5462152;26;20282;-65
2024/04/12 13:40:08;;;;;;;9.73;5.63;;;24.40;69.40;;;;;;5459621;26;20257;-66
2024/04/12 13:42:40;;;;;;;9.90;5.80;;;24.20;70.00;;;;;;5465737;26;20246;-66
2024/04/12 13:50:58;;;;;;;10.35;6.82;;;24.30;70.50;;;;;;5276944;27;20268;-65
2024/04/12 13:53:32;;;;;;;10.00;5.35;;;24.30;68.90;;;;;;5413646;26;20234;-65
2024/04/12 13:56:19;;;;;;;9.80;6.10;;;24.20;69.30;;;;;;5467955;26;20228;-65
2024/04/12 13:58:49;;;;;;;11.85;5.93;;;24.00;70.50;;;;;;5436336;26;20228;-65
2024/04/12 14:01:22;;;;;;;11.65;5.15;;;23.90;69.50;;;;;;5467607;26;20267;-65
2024/04/12 14:03:49;;;;;;;9.88;5.28;;;24.00;70.30;;;;;;5436382;26;20225;-66
2024/04/12 14:06:18;;;;;;;12.13;5.70;;;24.20;69.20;;;;;;5467056;26;20268;-65
2024/04/12 14:08:44;;;;;;;10.25;4.90;;;24.30;68.60;;;;;;5435390;26;20240;-66
2024/04/12 14:11:13;;;;;;;9.07;4.68;;;24.30;68.50;;;;;;5466578;26;20268;-66
2024/04/12 14:13:39;;;;;;;12.35;5.00;;;24.20;69.70;;;;;;5459872;26;20322;-66
2024/04/12 14:16:10;;;;;;;9.25;4.32;;;23.90;69.90;;;;;;5459361;26;20329;-65
2024/04/12 14:18:38;;;;;;;9.00;4.57;;;23.90;70.20;;;;;;5465649;26;20230;-65
2024/04/12 14:21:07;;;;;;;7.72;4.50;;;24.20;69.70;;;;;;5466800;26;20275;-65
2024/04/12 14:23:33;;;;;;;8.90;4.85;;;24.20;69.10;;;;;;5461945;26;20270;-66